createdAt,value
2018-09-18T00:01:04.045Z,21.50
2018-09-18T00:03:32.538Z,16.50
2018-09-18T00:06:01.059Z,16.13
2018-09-18T00:08:29.543Z,22.13
2018-09-18T00:10:58.105Z,12.67
2018-09-18T00:13:26.553Z,17.40
2018-09-18T00:15:55.026Z,18.93
2018-09-18T00:18:23.520Z,14.17
2018-09-18T00:20:52.023Z,14.80
2018-09-18T00:23:20.465Z,13.30
2018-09-18T00:25:48.967Z,12.60
2018-09-18T00:28:17.404Z,13.77
2018-09-18T00:30:45.871Z,18.40
2018-09-18T00:33:14.399Z,14.83
2018-09-18T00:35:42.882Z,13.20
2018-09-18T00:38:11.384Z,16.57
2018-09-18T00:40:39.842Z,14.47
2018-09-18T00:43:08.443Z,17.67
2018-09-18T00:45:36.898Z,14.10
2018-09-18T00:48:05.363Z,16.17
2018-09-18T00:50:33.865Z,17.20
2018-09-18T00:53:02.363Z,14.90
2018-09-18T00:55:31.372Z,16.10
2018-09-18T00:57:59.825Z,13.77
2018-09-18T01:00:28.305Z,16.70
2018-09-18T01:02:56.753Z,17.50
2018-09-18T01:05:25.267Z,15.83
2018-09-18T01:07:53.787Z,14.80
2018-09-18T01:10:22.335Z,17.60
2018-09-18T01:12:50.794Z,15.07
2018-09-18T01:15:19.400Z,16.30
2018-09-18T01:17:47.877Z,15.00
2018-09-18T01:20:16.380Z,13.93
2018-09-18T01:22:44.858Z,18.27
2018-09-18T01:25:13.366Z,14.27
2018-09-18T01:27:41.898Z,13.17
2018-09-18T01:30:10.470Z,15.60
2018-09-18T01:32:39.562Z,13.10
2018-09-18T01:35:08.060Z,21.83
2018-09-18T01:37:36.562Z,14.50
2018-09-18T01:40:05.774Z,15.70
2018-09-18T01:42:34.282Z,17.33
2018-09-18T01:45:02.834Z,15.83
2018-09-18T01:47:31.506Z,16.17
2018-09-18T01:49:59.969Z,15.73
2018-09-18T01:52:28.582Z,13.63
2018-09-18T01:54:57.156Z,19.23
2018-09-18T01:57:25.675Z,16.90
2018-09-18T01:59:54.136Z,14.33
2018-09-18T02:02:22.604Z,21.60
2018-09-18T02:04:51.066Z,18.70
2018-09-18T02:07:19.495Z,21.63
2018-09-18T02:09:47.991Z,16.40
2018-09-18T02:12:16.558Z,20.87
2018-09-18T02:14:45.016Z,20.03
2018-09-18T02:17:13.735Z,18.90
2018-09-18T02:19:42.157Z,20.83
2018-09-18T02:22:10.807Z,19.47
2018-09-18T02:24:39.279Z,19.73
2018-09-18T02:27:07.793Z,22.07
2018-09-18T02:29:36.331Z,16.83
2018-09-18T02:32:04.812Z,16.70
2018-09-18T02:34:33.251Z,18.73
2018-09-18T02:37:01.717Z,18.53
2018-09-18T02:39:30.197Z,17.13
2018-09-18T02:41:58.720Z,17.40
2018-09-18T02:44:27.192Z,15.63
2018-09-18T02:46:55.695Z,21.33
2018-09-18T02:49:24.176Z,21.03
2018-09-18T02:51:52.663Z,14.97
2018-09-18T02:54:21.219Z,18.03
2018-09-18T02:56:49.692Z,13.97
2018-09-18T02:59:18.221Z,13.00
2018-09-18T03:01:47.246Z,12.63
2018-09-18T03:04:15.722Z,21.73
2018-09-18T03:06:44.280Z,17.90
2018-09-18T03:09:13.564Z,17.43
2018-09-18T03:11:42.058Z,13.07
2018-09-18T03:14:11.164Z,14.67
2018-09-18T03:16:39.616Z,13.43
2018-09-18T03:19:08.233Z,15.27
2018-09-18T03:21:36.697Z,17.53
2018-09-18T03:24:05.535Z,19.63
2018-09-18T03:26:33.998Z,16.23
2018-09-18T03:29:02.448Z,18.57
2018-09-18T03:31:31.062Z,16.07
2018-09-18T03:33:59.543Z,21.13
2018-09-18T03:36:28.044Z,19.33
2018-09-18T03:38:56.557Z,20.23
2018-09-18T03:41:25.245Z,20.20
2018-09-18T03:43:53.751Z,17.83
2018-09-18T03:46:22.492Z,20.27
2018-09-18T03:48:51.109Z,16.03
2018-09-18T03:51:19.588Z,17.83
2018-09-18T03:53:48.119Z,19.23
2018-09-18T03:56:16.612Z,17.20
2018-09-18T03:58:45.075Z,18.73
2018-09-18T04:01:13.515Z,17.40
2018-09-18T04:03:41.994Z,22.07
2018-09-18T04:06:10.428Z,18.80
2018-09-18T04:08:38.968Z,18.93
2018-09-18T04:11:07.481Z,24.93
2018-09-18T04:13:35.913Z,16.87
2018-09-18T04:16:04.400Z,19.27
2018-09-18T04:18:32.950Z,20.13
2018-09-18T04:21:02.326Z,21.43
2018-09-18T04:23:30.798Z,16.27
2018-09-18T04:25:59.264Z,17.73
2018-09-18T04:28:27.710Z,17.40
2018-09-18T04:30:56.288Z,20.80
2018-09-18T04:33:24.790Z,23.33
2018-09-18T04:35:53.305Z,17.13
2018-09-18T04:38:21.816Z,17.07
2018-09-18T04:40:50.311Z,18.40
2018-09-18T04:43:18.781Z,20.77
2018-09-18T04:45:47.365Z,19.23
2018-09-18T04:48:15.809Z,29.10
2018-09-18T04:50:44.277Z,16.70
2018-09-18T04:53:12.741Z,18.57
2018-09-18T04:55:41.208Z,15.53
2018-09-18T04:58:09.783Z,17.10
2018-09-18T05:00:38.270Z,15.67
2018-09-18T05:03:06.797Z,17.30
2018-09-18T05:05:35.247Z,16.30
2018-09-18T05:08:03.762Z,20.03
2018-09-18T05:10:32.855Z,13.40
2018-09-18T05:13:01.315Z,16.23
2018-09-18T05:15:29.812Z,14.67
2018-09-18T05:17:58.301Z,17.60
2018-09-18T05:20:26.866Z,19.30
2018-09-18T05:22:55.622Z,22.00
2018-09-18T05:25:24.162Z,20.07
2018-09-18T05:27:52.608Z,23.97
2018-09-18T05:30:21.099Z,23.13
2018-09-18T05:32:49.636Z,22.50
2018-09-18T05:35:18.178Z,28.20
2018-09-18T05:37:46.659Z,25.20
2018-09-18T05:40:15.144Z,28.07
2018-09-18T05:42:43.625Z,27.80
2018-09-18T05:45:12.122Z,27.27
2018-09-18T05:47:40.604Z,37.03
2018-09-18T05:50:09.054Z,22.77
2018-09-18T05:52:37.510Z,24.70
2018-09-18T05:55:06.332Z,32.37
2018-09-18T05:57:34.815Z,28.67
2018-09-18T06:00:03.310Z,30.63
2018-09-18T06:02:31.764Z,30.83
2018-09-18T06:05:00.285Z,30.57
2018-09-18T06:07:28.847Z,26.20
2018-09-18T06:09:57.327Z,25.57
2018-09-18T06:12:25.830Z,29.77
2018-09-18T06:14:54.303Z,32.67
2018-09-18T06:17:22.756Z,33.70
2018-09-18T06:19:51.303Z,28.03
2018-09-18T06:22:19.817Z,28.60
2018-09-18T06:24:48.443Z,25.33
2018-09-18T06:27:17.030Z,30.60
2018-09-18T06:29:45.477Z,29.33
2018-09-18T06:32:14.006Z,25.40
2018-09-18T06:34:42.494Z,29.13
2018-09-18T06:37:10.932Z,25.37
2018-09-18T06:39:39.367Z,29.53
2018-09-18T06:42:08.185Z,22.73
2018-09-18T06:44:36.693Z,29.10
2018-09-18T06:47:05.518Z,29.93
2018-09-18T06:49:34.087Z,25.07
2018-09-18T06:52:02.578Z,25.07
2018-09-18T06:54:31.068Z,24.50
2018-09-18T06:56:59.545Z,26.07
2018-09-18T06:59:28.036Z,26.20
2018-09-18T07:01:56.509Z,20.30
2018-09-18T07:04:24.978Z,25.00
2018-09-18T07:06:54.429Z,20.07
2018-09-18T07:09:23.019Z,23.97
2018-09-18T07:11:51.736Z,22.17
2018-09-18T07:14:20.229Z,22.00
2018-09-18T07:16:48.713Z,24.40
2018-09-18T07:19:17.930Z,20.63
2018-09-18T07:21:46.897Z,23.77
2018-09-18T07:24:15.479Z,27.23
2018-09-18T07:26:44.150Z,23.00
2018-09-18T07:29:12.615Z,18.93
2018-09-18T07:31:41.085Z,21.03
2018-09-18T07:34:09.857Z,17.23
2018-09-18T07:36:38.482Z,21.37
2018-09-18T07:39:09.560Z,18.00
2018-09-18T07:41:38.049Z,19.20
2018-09-18T07:44:06.580Z,22.80
2018-09-18T07:46:35.128Z,17.67
2018-09-18T07:49:04.749Z,21.87
2018-09-18T07:51:33.965Z,21.80
2018-09-18T07:54:02.994Z,19.40
2018-09-18T07:56:32.020Z,18.13
2018-09-18T07:59:01.245Z,15.90
2018-09-18T08:01:31.335Z,18.10
2018-09-18T08:03:59.826Z,17.40
2018-09-18T08:06:28.342Z,28.60
2018-09-18T08:08:56.805Z,13.37
2018-09-18T08:11:25.326Z,18.53
2018-09-18T08:13:53.820Z,18.00
2018-09-18T08:16:22.314Z,22.80
2018-09-18T08:18:50.892Z,14.07
2018-09-18T08:21:19.334Z,16.80
2018-09-18T08:23:47.792Z,22.13
2018-09-18T08:26:16.258Z,12.30
2018-09-18T08:28:44.734Z,21.40
2018-09-18T08:31:13.288Z,22.63
2018-09-18T08:33:41.757Z,14.50
2018-09-18T08:36:10.263Z,16.33
2018-09-18T08:38:39.231Z,15.53
2018-09-18T08:41:07.824Z,11.70
2018-09-18T08:43:36.648Z,14.43
2018-09-18T08:46:05.192Z,12.07
2018-09-18T08:48:33.617Z,11.40
2018-09-18T08:51:02.395Z,9.83
2018-09-18T08:53:31.673Z,17.10
2018-09-18T08:56:00.211Z,14.33
2018-09-18T08:58:28.664Z,14.63
2018-09-18T09:00:57.163Z,8.90
2018-09-18T09:03:25.668Z,17.90
2018-09-18T09:05:54.268Z,13.17
2018-09-18T09:08:22.812Z,11.23
2018-09-18T09:10:51.207Z,8.87
2018-09-18T09:13:19.676Z,8.97
2018-09-18T09:15:48.126Z,11.83
2018-09-18T09:18:16.665Z,7.63
2018-09-18T09:20:45.178Z,8.00
2018-09-18T09:23:13.957Z,8.03
2018-09-18T09:25:42.456Z,8.43
2018-09-18T09:28:10.912Z,10.33
2018-09-18T09:30:39.454Z,9.90
2018-09-18T09:33:07.923Z,14.30
2018-09-18T09:35:36.416Z,13.43
2018-09-18T09:38:04.919Z,8.70
2018-09-18T09:40:33.403Z,12.30
2018-09-18T09:43:01.882Z,9.93
2018-09-18T09:45:30.409Z,7.47
2018-09-18T09:47:58.883Z,9.30
2018-09-18T09:50:27.404Z,6.70
2018-09-18T09:52:55.874Z,13.83
2018-09-18T09:55:24.359Z,11.13
2018-09-18T09:57:52.815Z,9.00
2018-09-18T10:00:26.587Z,6.70
2018-09-18T10:02:55.072Z,8.20
2018-09-18T10:05:23.582Z,6.73
2018-09-18T10:07:52.094Z,10.27
2018-09-18T10:10:20.596Z,14.40
2018-09-18T10:12:49.090Z,8.93
2018-09-18T10:15:17.600Z,8.57
2018-09-18T10:17:46.101Z,8.67
2018-09-18T10:20:14.602Z,7.80
2018-09-18T10:22:43.047Z,11.37
2018-09-18T10:25:11.609Z,5.93
2018-09-18T10:27:40.012Z,7.57
2018-09-18T10:30:08.558Z,7.80
2018-09-18T10:32:37.050Z,9.40
2018-09-18T10:35:05.550Z,8.43
2018-09-18T10:37:34.077Z,6.37
2018-09-18T10:40:02.564Z,8.87
2018-09-18T10:42:31.088Z,6.60
2018-09-18T10:44:59.579Z,9.33
2018-09-18T10:47:28.060Z,7.30
2018-09-18T10:49:56.508Z,8.03
2018-09-18T10:52:25.022Z,8.87
2018-09-18T10:54:53.642Z,7.37
2018-09-18T10:57:22.106Z,8.80
2018-09-18T10:59:50.575Z,6.47
2018-09-18T11:02:19.147Z,11.57
2018-09-18T11:04:47.580Z,10.97
2018-09-18T11:07:16.157Z,8.53
2018-09-18T11:09:44.668Z,8.13
2018-09-18T11:12:13.184Z,8.87
2018-09-18T11:14:41.666Z,8.43
2018-09-18T11:17:10.191Z,7.90
2018-09-18T11:19:38.679Z,11.07
2018-09-18T11:22:07.255Z,9.93
2018-09-18T11:24:35.716Z,6.53
2018-09-18T11:27:04.216Z,6.93
2018-09-18T11:29:32.702Z,6.73
2018-09-18T11:32:01.173Z,6.77
2018-09-18T11:34:29.647Z,7.97
2018-09-18T11:36:58.147Z,6.30
2018-09-18T11:39:26.599Z,6.87
2018-09-18T11:41:55.068Z,13.20
2018-09-18T11:44:23.750Z,6.17
2018-09-18T11:46:52.935Z,11.93
2018-09-18T11:49:21.738Z,7.43
2018-09-18T11:51:50.278Z,8.73
2018-09-18T11:54:18.784Z,6.00
2018-09-18T11:56:47.379Z,13.53
2018-09-18T11:59:15.878Z,7.27
2018-09-18T12:01:44.432Z,13.10
2018-09-18T12:04:13.014Z,8.70
2018-09-18T12:06:42.185Z,9.83
2018-09-18T12:09:11.761Z,10.70
2018-09-18T12:11:40.883Z,8.00
2018-09-18T12:14:09.401Z,11.77
2018-09-18T12:16:38.268Z,6.70
2018-09-18T12:19:06.991Z,10.43
2018-09-18T12:21:35.449Z,6.83
2018-09-18T12:24:04.067Z,8.70
2018-09-18T12:26:32.551Z,6.10
2018-09-18T12:29:01.061Z,10.77
2018-09-18T12:31:29.543Z,11.33
2018-09-18T12:33:58.027Z,7.33
2018-09-18T12:36:26.535Z,11.73
2018-09-18T12:38:54.980Z,6.40
2018-09-18T12:41:23.522Z,5.37
2018-09-18T12:43:51.989Z,7.63
2018-09-18T12:46:20.503Z,7.57
2018-09-18T12:48:49.042Z,7.23
2018-09-18T12:51:17.464Z,8.00
2018-09-18T12:53:46.010Z,7.77
2018-09-18T12:56:14.703Z,12.63
2018-09-18T12:58:43.162Z,7.67
2018-09-18T13:01:11.619Z,8.10
2018-09-18T13:03:40.131Z,6.70
2018-09-18T13:06:08.614Z,7.17
2018-09-18T13:08:37.123Z,6.83
2018-09-18T13:11:05.785Z,7.00
2018-09-18T13:13:34.286Z,6.80
2018-09-18T13:16:02.831Z,8.37
2018-09-18T13:18:31.331Z,6.97
2018-09-18T13:20:59.847Z,6.00
2018-09-18T13:23:28.375Z,9.60
2018-09-18T13:25:56.919Z,6.60
2018-09-18T13:28:25.416Z,6.37
2018-09-18T13:30:53.852Z,6.17
2018-09-18T13:33:22.388Z,6.67
2018-09-18T13:35:50.912Z,10.83
2018-09-18T13:38:19.379Z,8.37
2018-09-18T13:40:47.934Z,10.43
2018-09-18T13:43:16.407Z,5.57
2018-09-18T13:45:44.895Z,13.13
2018-09-18T13:48:13.365Z,7.20
2018-09-18T13:50:41.899Z,5.57
2018-09-18T13:53:10.429Z,11.23
2018-09-18T13:55:39.006Z,6.37
2018-09-18T13:58:07.472Z,5.33
2018-09-18T14:00:36.042Z,5.47
2018-09-18T14:03:04.509Z,5.90
2018-09-18T14:05:33.080Z,5.90
2018-09-18T14:08:01.529Z,6.10
2018-09-18T14:10:30.099Z,7.20
2018-09-18T14:12:58.553Z,4.70
2018-09-18T14:15:27.014Z,6.13
2018-09-18T14:17:55.486Z,9.20
2018-09-18T14:20:24.062Z,5.67
2018-09-18T14:22:52.486Z,11.73
2018-09-18T14:25:21.031Z,5.93
2018-09-18T14:27:49.534Z,6.20
2018-09-18T14:30:18.030Z,5.40
2018-09-18T14:32:46.507Z,5.30
2018-09-18T14:35:14.994Z,5.67
2018-09-18T14:37:43.558Z,6.27
2018-09-18T14:40:12.051Z,7.40
2018-09-18T14:42:40.539Z,7.50
2018-09-18T14:45:09.090Z,6.53
2018-09-18T14:47:37.579Z,7.10
2018-09-18T14:50:06.147Z,6.40
2018-09-18T14:52:34.917Z,12.67
2018-09-18T14:55:03.477Z,6.50
2018-09-18T14:57:31.999Z,7.90
2018-09-18T15:00:00.500Z,15.07
2018-09-18T15:02:29.023Z,8.17
2018-09-18T15:04:57.552Z,5.70
2018-09-18T15:07:26.085Z,9.13
2018-09-18T15:09:54.565Z,8.63
2018-09-18T15:12:23.090Z,10.13
2018-09-18T15:14:51.725Z,6.87
2018-09-18T15:17:20.096Z,6.53
2018-09-18T15:19:48.618Z,8.30
2018-09-18T15:22:17.086Z,7.80
2018-09-18T15:24:45.592Z,7.77
2018-09-18T15:27:14.126Z,10.30
2018-09-18T15:29:42.797Z,7.80
2018-09-18T15:32:11.397Z,7.10
2018-09-18T15:34:39.898Z,7.00
2018-09-18T15:37:08.376Z,13.83
2018-09-18T15:39:36.918Z,7.93
2018-09-18T15:42:05.312Z,10.00
2018-09-18T15:44:33.806Z,6.40
2018-09-18T15:47:02.346Z,8.00
2018-09-18T15:49:30.842Z,12.40
2018-09-18T15:51:59.337Z,6.90
2018-09-18T15:54:29.042Z,7.43
2018-09-18T15:56:57.548Z,10.83
2018-09-18T15:59:26.053Z,11.50
2018-09-18T16:01:54.545Z,6.60
2018-09-18T16:04:23.052Z,8.67
2018-09-18T16:06:51.733Z,7.27
2018-09-18T16:09:20.243Z,9.70
2018-09-18T16:11:48.710Z,15.73
2018-09-18T16:14:17.246Z,12.73
2018-09-18T16:16:45.906Z,22.57
2018-09-18T16:19:15.569Z,26.67
2018-09-18T16:21:44.234Z,9.60
2018-09-18T16:24:12.720Z,11.17
2018-09-18T16:26:41.219Z,9.20
2018-09-18T16:29:09.675Z,16.00
2018-09-18T16:34:07.330Z,13.27
2018-09-18T16:36:35.858Z,17.50
2018-09-18T16:39:06.063Z,16.20
2018-09-18T16:41:34.714Z,15.40
2018-09-18T16:44:03.261Z,11.37
2018-09-18T16:46:31.808Z,14.37
2018-09-18T16:49:02.780Z,18.63
2018-09-18T16:51:31.584Z,20.87
2018-09-18T16:54:00.062Z,18.63
2018-09-18T16:56:28.671Z,19.53
2018-09-18T16:58:57.185Z,11.57
2018-09-18T17:01:25.677Z,11.73
2018-09-18T17:03:54.212Z,11.57
2018-09-18T17:06:22.945Z,14.77
2018-09-18T17:08:51.554Z,187.60
2018-09-18T17:11:20.072Z,174.17
2018-09-18T17:13:48.740Z,217.80
2018-09-18T17:16:17.260Z,426.23
2018-09-18T17:18:45.882Z,129.27
2018-09-18T17:21:15.135Z,22.30
2018-09-18T17:23:43.958Z,22.50
2018-09-18T17:26:12.920Z,21.77
2018-09-18T17:28:43.176Z,15.63
2018-09-18T17:31:11.973Z,9.17
2018-09-18T17:33:41.473Z,26.37
2018-09-18T17:36:10.359Z,14.47
2018-09-18T17:38:39.430Z,8.10
2018-09-18T17:41:08.853Z,18.13
2018-09-18T17:43:37.925Z,6.27
2018-09-18T17:46:07.165Z,10.37
2018-09-18T17:48:36.553Z,5.43
2018-09-18T17:51:06.430Z,6.20
2018-09-18T17:53:35.354Z,4.20
2018-09-18T17:56:04.070Z,9.70
2018-09-18T17:58:33.095Z,5.60
2018-09-18T18:01:02.204Z,8.67
2018-09-18T18:03:31.136Z,7.60
2018-09-18T18:06:00.188Z,7.40
2018-09-18T18:08:29.064Z,18.87
2018-09-18T18:10:58.241Z,7.83
2018-09-18T18:13:27.165Z,13.50
2018-09-18T18:15:56.096Z,14.50
2018-09-18T18:18:25.770Z,9.23
2018-09-18T18:20:54.974Z,8.10
2018-09-18T18:23:24.347Z,6.37
2018-09-18T18:25:53.788Z,9.67
2018-09-18T18:28:23.184Z,9.80
2018-09-18T18:30:52.537Z,5.70
2018-09-18T18:33:21.819Z,6.67
2018-09-18T18:35:51.072Z,5.97
2018-09-18T18:38:20.366Z,6.43
2018-09-18T18:40:50.726Z,5.87
2018-09-18T18:43:20.529Z,9.40
2018-09-18T18:45:50.163Z,7.70
2018-09-18T18:48:19.815Z,4.97
2018-09-18T18:50:49.695Z,6.73
2018-09-18T18:53:19.295Z,6.20
2018-09-18T18:55:50.453Z,5.50
2018-09-18T18:58:21.735Z,7.63
2018-09-18T19:00:52.069Z,5.00
2018-09-18T19:03:22.146Z,7.20
2018-09-18T19:05:52.308Z,6.10
2018-09-18T19:08:22.621Z,5.10
2018-09-18T19:10:52.793Z,6.93
2018-09-18T19:13:23.817Z,4.47
2018-09-18T19:15:53.906Z,4.37
2018-09-18T19:18:23.669Z,5.50
2018-09-18T19:20:53.421Z,3.50
2018-09-18T19:23:25.031Z,4.47
2018-09-18T19:25:56.243Z,4.00
2018-09-18T19:28:26.609Z,3.00
2018-09-18T19:30:57.338Z,4.67
2018-09-18T19:33:28.692Z,2.93
2018-09-18T19:35:58.611Z,8.00
2018-09-18T19:38:29.117Z,4.87
2018-09-18T19:40:59.557Z,3.77
2018-09-18T19:43:30.432Z,4.10
2018-09-18T19:45:59.758Z,5.13
2018-09-18T19:48:29.263Z,4.33
2018-09-18T19:50:58.551Z,4.80
2018-09-18T19:53:28.259Z,3.43
2018-09-18T19:55:57.499Z,4.17
2018-09-18T19:58:26.923Z,5.13
2018-09-18T20:00:56.387Z,14.73
2018-09-18T20:03:26.092Z,2.83
2018-09-18T20:05:56.253Z,3.13
2018-09-18T20:08:26.664Z,3.63
2018-09-18T20:10:56.317Z,4.13
2018-09-18T20:13:25.610Z,6.00
2018-09-18T20:15:55.204Z,6.50
2018-09-18T20:18:24.966Z,3.80
2018-09-18T20:20:54.995Z,3.80
2018-09-18T20:23:24.239Z,5.17
2018-09-18T20:25:53.155Z,6.57
2018-09-18T20:28:22.364Z,4.90
2018-09-18T20:30:51.586Z,6.13
2018-09-18T20:33:20.697Z,2.50
2018-09-18T20:35:49.858Z,5.60
2018-09-18T20:38:20.596Z,7.87
2018-09-18T20:40:50.112Z,4.70
2018-09-18T20:43:19.217Z,4.63
2018-09-18T20:45:49.043Z,8.50
2018-09-18T20:48:17.769Z,10.27
2018-09-18T20:50:46.598Z,3.50
2018-09-18T20:53:17.183Z,3.63
2018-09-18T20:55:45.856Z,4.43
2018-09-18T20:58:14.435Z,3.80
2018-09-18T21:00:43.054Z,6.90
2018-09-18T21:03:11.572Z,5.13
2018-09-18T21:05:40.108Z,8.10
2018-09-18T21:08:08.674Z,5.40
2018-09-18T21:10:37.193Z,4.13
2018-09-18T21:13:05.773Z,2.93
2018-09-18T21:15:35.331Z,3.70
2018-09-18T21:18:03.849Z,6.20
2018-09-18T21:20:32.366Z,4.40
2018-09-18T21:23:00.918Z,4.90
2018-09-18T21:26:18.852Z,7.63
2018-09-18T21:28:47.753Z,5.53
2018-09-18T21:31:16.754Z,5.17
2018-09-18T21:33:45.370Z,4.53
2018-09-18T21:36:13.962Z,3.47
2018-09-18T21:38:42.518Z,4.07
2018-09-18T21:41:11.054Z,4.40
2018-09-18T21:43:39.546Z,4.70
2018-09-18T21:46:08.149Z,8.07
2018-09-18T21:48:36.621Z,3.10
2018-09-18T21:51:05.273Z,4.43
2018-09-18T21:53:33.776Z,2.57
2018-09-18T21:56:02.297Z,3.30
2018-09-18T21:58:30.840Z,9.53
2018-09-18T22:01:03.779Z,3.03
2018-09-18T22:03:32.723Z,7.50
2018-09-18T22:06:01.687Z,2.83
2018-09-18T22:08:30.284Z,3.67
2018-09-18T22:10:58.913Z,2.90
2018-09-18T22:13:27.488Z,3.13
2018-09-18T22:15:56.050Z,3.10
2018-09-18T22:18:24.653Z,2.63
2018-09-18T22:20:53.147Z,3.10
2018-09-18T22:23:21.613Z,3.30
2018-09-18T22:25:50.173Z,2.73
2018-09-18T22:28:18.835Z,3.07
2018-09-18T22:30:47.359Z,3.00
2018-09-18T22:33:15.897Z,6.20
2018-09-18T22:35:45.329Z,2.60
2018-09-18T22:38:13.922Z,5.13
2018-09-18T22:40:42.371Z,2.40
2018-09-18T22:43:10.935Z,3.80
2018-09-18T22:45:39.479Z,3.00
2018-09-18T22:48:07.965Z,2.93
2018-09-18T22:50:36.450Z,2.70
2018-09-18T22:53:04.922Z,3.03
2018-09-18T22:55:33.449Z,2.83
2018-09-18T22:58:01.949Z,3.17
2018-09-18T23:00:30.465Z,3.77
2018-09-18T23:02:58.941Z,2.93
2018-09-18T23:05:27.400Z,2.43
2018-09-18T23:07:55.893Z,2.40
2018-09-18T23:10:24.342Z,3.20
2018-09-18T23:12:52.789Z,2.63
2018-09-18T23:15:21.231Z,2.80
2018-09-18T23:17:49.668Z,3.77
2018-09-18T23:20:18.126Z,4.60
2018-09-18T23:22:46.651Z,3.90
2018-09-18T23:25:15.210Z,5.10
2018-09-18T23:27:43.670Z,3.10
2018-09-18T23:30:12.209Z,4.30
2018-09-18T23:32:40.762Z,3.27
2018-09-18T23:35:09.307Z,3.70
2018-09-18T23:37:37.768Z,2.60
2018-09-18T23:40:06.339Z,3.63
2018-09-18T23:42:34.803Z,3.33
2018-09-18T23:45:03.354Z,4.97
2018-09-18T23:47:31.787Z,3.10
2018-09-18T23:50:00.243Z,3.47
2018-09-18T23:52:28.806Z,2.40
2018-09-18T23:54:58.207Z,3.30
2018-09-18T23:57:26.692Z,3.17
2018-09-18T23:59:55.218Z,3.20
